Time;durP1;ratioP1;P1;durP2;ratioP2;P2;SDS_P1;SDS_P2;PMS_P1;PMS_P2;Temp;Humidity;BMP_temperature;BMP_pressure;BME280_temperature;BME280_humidity;BME280_pressure;Samples;Min_cycle;Max_cycle;Signal;HPM_P1;HPM_P2
2023/08/15 00:03:46;;;;;;;14.98;4.28;;;;;17.90;100780.00;;;;10258308;28;21484;-77
2023/08/15 00:08:53;;;;;;;8.77;3.65;;;;;17.80;100784.00;;;;10241771;28;20203;-77
2023/08/15 00:13:56;;;;;;;9.75;3.65;;;;;17.70;100785.00;;;;10240186;28;20226;-77
2023/08/15 00:18:58;;;;;;;14.93;3.80;;;;;17.70;100791.00;;;;10246118;28;20282;-77
2023/08/15 00:23:59;;;;;;;18.15;4.18;;;;;17.70;100802.00;;;;10266811;28;20207;-78
2023/08/15 00:29:00;;;;;;;13.70;3.90;;;;;17.70;100804.00;;;;10247623;28;20204;-77
2023/08/15 00:34:03;;;;;;;8.13;2.78;;;;;17.70;100804.00;;;;10260806;28;20505;-77
2023/08/15 00:39:04;;;;;;;11.30;4.15;;;;;17.80;100809.00;;;;10247535;28;20219;-77
2023/08/15 00:44:06;;;;;;;16.83;3.25;;;;;17.90;100800.00;;;;10247086;28;20211;-77
2023/08/15 00:49:07;;;;;;;13.48;3.70;;;;;18.00;100788.00;;;;10246691;28;21924;-77
2023/08/15 00:54:09;;;;;;;12.02;4.35;;;;;18.00;100790.00;;;;10246352;28;20928;-76
2023/08/15 00:59:10;;;;;;;12.23;3.63;;;;;18.10;100797.00;;;;10243702;28;20507;-76
2023/08/15 01:04:13;;;;;;;12.52;3.30;;;;;18.10;100801.00;;;;10262897;28;21852;-76
2023/08/15 01:09:14;;;;;;;12.25;3.10;;;;;18.00;100813.00;;;;10262037;28;20200;-76
2023/08/15 01:14:19;;;;;;;10.95;3.30;;;;;18.00;100815.00;;;;10261268;28;20204;-76
2023/08/15 01:19:38;;;;;;;11.45;3.28;;;;;17.90;100809.00;;;;10244773;28;20269;-76
2023/08/15 01:24:39;;;;;;;11.43;3.30;;;;;17.90;100816.00;;;;10260316;28;20790;-76
2023/08/15 01:29:41;;;;;;;11.05;3.53;;;;;17.90;100812.00;;;;10244103;28;20223;-76
2023/08/15 01:34:56;;;;;;;11.90;3.72;;;;;17.90;100823.00;;;;10245036;28;20328;-76
2023/08/15 01:40:00;;;;;;;17.08;3.60;;;;;17.90;100844.00;;;;10242933;28;20306;-76
2023/08/15 01:45:05;;;;;;;8.10;3.03;;;;;17.90;100843.00;;;;10261642;28;21688;-75
2023/08/15 01:50:07;;;;;;;12.60;3.47;;;;;17.90;100824.00;;;;10242790;28;20346;-75
2023/08/15 01:55:09;;;;;;;13.80;3.45;;;;;17.90;100824.00;;;;10242571;28;20629;-76
2023/08/15 02:00:10;;;;;;;10.40;3.38;;;;;17.90;100827.00;;;;10258382;28;20269;-77
2023/08/15 02:05:18;;;;;;;10.00;3.30;;;;;17.90;100815.00;;;;10243542;28;20337;-76
2023/08/15 02:10:19;;;;;;;14.25;3.58;;;;;17.90;100823.00;;;;10261817;28;21002;-76
2023/08/15 02:15:22;;;;;;;8.82;3.13;;;;;17.90;100825.00;;;;10243745;28;20580;-77
2023/08/15 02:20:24;;;;;;;13.73;3.78;;;;;17.90;100835.00;;;;10239105;28;21774;-75
2023/08/15 02:25:25;;;;;;;11.55;3.13;;;;;18.00;100834.00;;;;10241650;28;20203;-75
2023/08/15 02:30:27;;;;;;;9.70;3.40;;;;;18.00;100827.00;;;;10260337;28;20342;-76
2023/08/15 02:35:28;;;;;;;7.85;3.22;;;;;18.00;100829.00;;;;10241784;28;20207;-76
2023/08/15 02:40:29;;;;;;;10.93;3.30;;;;;18.10;100832.00;;;;10222761;28;20879;-76
2023/08/15 02:45:30;;;;;;;8.05;2.70;;;;;18.10;100828.00;;;;10256797;28;20965;-76
2023/08/15 02:50:31;;;;;;;12.77;4.18;;;;;18.20;100832.00;;;;10240569;28;20439;-76
2023/08/15 02:55:33;;;;;;;10.50;3.30;;;;;18.30;100827.00;;;;10255957;28;20687;-77
2023/08/15 03:00:35;;;;;;;11.55;3.17;;;;;18.40;100822.00;;;;10256596;28;20261;-77
2023/08/15 03:05:37;;;;;;;8.77;3.25;;;;;18.40;100825.00;;;;10243473;28;20211;-76
2023/08/15 03:10:39;;;;;;;9.68;2.75;;;;;18.30;100825.00;;;;10258423;28;20211;-76
2023/08/15 03:15:41;;;;;;;11.05;3.47;;;;;18.20;100837.00;;;;10256257;28;20544;-76
2023/08/15 03:20:42;;;;;;;12.38;3.95;;;;;17.90;100830.00;;;;10222449;28;20401;-76
2023/08/15 03:25:43;;;;;;;14.32;4.35;;;;;17.80;100854.00;;;;10238605;28;20215;-76
2023/08/15 03:30:46;;;;;;;9.77;3.72;;;;;17.60;100862.00;;;;10239130;28;21964;-75
2023/08/15 03:35:50;;;;;;;13.98;3.83;;;;;17.40;100862.00;;;;10239042;28;20615;-75
2023/08/15 03:41:03;;;;;;;12.43;3.80;;;;;17.20;100869.00;;;;10240036;28;20223;-76
2023/08/15 03:46:06;;;;;;;10.98;3.47;;;;;17.10;100860.00;;;;10225922;28;20605;-78
2023/08/15 03:51:08;;;;;;;12.85;3.40;;;;;17.10;100865.00;;;;10236032;28;20402;-76
2023/08/15 03:56:12;;;;;;;11.07;3.83;;;;;17.00;100854.00;;;;10245212;28;20203;-76
2023/08/15 04:01:13;;;;;;;11.27;4.13;;;;;16.90;100862.00;;;;10244711;28;20230;-77
2023/08/15 04:06:15;;;;;;;16.15;4.20;;;;;16.80;100861.00;;;;10266061;28;20296;-77
2023/08/15 04:11:16;;;;;;;8.20;3.33;;;;;16.80;100864.00;;;;10266668;28;20798;-77
2023/08/15 04:16:17;;;;;;;10.40;3.67;;;;;16.70;100868.00;;;;10249334;28;20211;-77
2023/08/15 04:21:19;;;;;;;9.18;3.85;;;;;16.60;100863.00;;;;10248999;28;20571;-77
2023/08/15 04:26:21;;;;;;;9.55;3.90;;;;;16.60;100870.00;;;;10246480;28;20237;-77
2023/08/15 04:31:22;;;;;;;13.00;3.78;;;;;16.60;100869.00;;;;10248375;28;21870;-77
2023/08/15 04:36:23;;;;;;;11.90;3.58;;;;;16.60;100883.00;;;;10266453;28;20217;-77
2023/08/15 04:41:25;;;;;;;10.68;3.90;;;;;16.60;100892.00;;;;10247574;28;20223;-77
2023/08/15 04:46:26;;;;;;;13.00;4.07;;;;;16.60;100901.00;;;;10248157;28;20286;-75
2023/08/15 04:51:28;;;;;;;13.60;3.60;;;;;16.70;100910.00;;;;10260041;28;20195;-75
2023/08/15 04:56:30;;;;;;;10.02;4.03;;;;;16.70;100919.00;;;;10259568;28;20949;-77
2023/08/15 05:01:31;;;;;;;15.52;4.05;;;;;16.80;100925.00;;;;10260840;28;20222;-75
2023/08/15 05:06:33;;;;;;;11.32;3.53;;;;;17.00;100926.00;;;;10238908;28;20222;-75
2023/08/15 05:11:34;;;;;;;9.23;3.85;;;;;17.10;100928.00;;;;10258009;28;20207;-74
2023/08/15 05:16:36;;;;;;;13.10;3.83;;;;;17.30;100924.00;;;;10226772;28;20213;-77
2023/08/15 05:21:37;;;;;;;9.02;3.67;;;;;17.50;100926.00;;;;10258585;28;21286;-76
2023/08/15 05:26:39;;;;;;;9.25;3.45;;;;;17.70;100912.00;;;;10244047;28;20207;-76
2023/08/15 05:31:40;;;;;;;10.38;3.47;;;;;17.90;100928.00;;;;10255788;28;20200;-76
2023/08/15 05:36:41;;;;;;;11.07;3.17;;;;;18.10;100932.00;;;;10223334;28;20222;-76
2023/08/15 05:41:43;;;;;;;9.25;3.00;;;;;18.30;100931.00;;;;10239196;28;20628;-76
2023/08/15 05:46:44;;;;;;;7.28;2.88;;;;;18.50;100945.00;;;;10225496;28;20306;-76
2023/08/15 05:51:46;;;;;;;10.68;3.10;;;;;18.60;100947.00;;;;10242874;28;20343;-75
2023/08/15 05:56:47;;;;;;;9.07;2.85;;;;;19.00;100947.00;;;;10258011;28;20677;-77
2023/08/15 06:01:48;;;;;;;7.50;2.75;;;;;19.40;100949.00;;;;10255756;28;20215;-77
2023/08/15 06:06:50;;;;;;;8.50;3.05;;;;;19.50;100952.00;;;;10259141;28;20581;-75
2023/08/15 06:11:51;;;;;;;7.65;2.40;;;;;20.00;100937.00;;;;10242173;28;20655;-76
2023/08/15 06:16:53;;;;;;;6.05;2.60;;;;;20.60;100941.00;;;;10241427;28;20208;-75
2023/08/15 06:21:54;;;;;;;6.07;2.58;;;;;21.30;100937.00;;;;10226957;28;20353;-76
2023/08/15 06:26:56;;;;;;;4.30;2.08;;;;;21.60;100939.00;;;;10258433;28;20207;-76
2023/08/15 06:31:58;;;;;;;5.03;2.20;;;;;22.20;100931.00;;;;10259321;28;20285;-78
2023/08/15 06:36:59;;;;;;;6.10;2.42;;;;;22.80;100934.00;;;;10261993;28;20242;-75
2023/08/15 06:42:00;;;;;;;6.63;1.85;;;;;22.70;100939.00;;;;10257088;28;20223;-75
2023/08/15 06:47:02;;;;;;;6.07;1.90;;;;;22.50;100943.00;;;;10260497;28;20293;-77
2023/08/15 06:52:03;;;;;;;3.88;1.98;;;;;23.10;100932.00;;;;10268414;28;20207;-76
2023/08/15 06:57:07;;;;;;;5.88;1.75;;;;;23.40;100924.00;;;;10243841;28;20694;-76
2023/08/15 07:02:08;;;;;;;5.00;1.83;;;;;23.80;100947.00;;;;10239388;28;21241;-78
2023/08/15 07:07:11;;;;;;;3.17;1.55;;;;;23.90;100948.00;;;;10259157;28;20932;-78
2023/08/15 07:12:17;;;;;;;3.53;1.50;;;;;23.60;100955.00;;;;10259848;28;20223;-79
2023/08/15 07:17:19;;;;;;;4.57;1.60;;;;;24.30;100958.00;;;;10242545;28;21535;-77
2023/08/15 07:22:20;;;;;;;3.63;1.50;;;;;25.30;100952.00;;;;10236535;28;20593;-79
2023/08/15 07:27:22;;;;;;;4.22;1.85;;;;;25.20;100972.00;;;;10240564;28;20216;-77
2023/08/15 07:32:24;;;;;;;4.00;1.80;;;;;24.90;100981.00;;;;10257713;28;20525;-77
2023/08/15 07:37:26;;;;;;;4.47;1.70;;;;;24.40;100989.00;;;;10265432;28;20629;-78
2023/08/15 07:42:28;;;;;;;4.97;1.50;;;;;24.30;100994.00;;;;10262850;28;20287;-76
2023/08/15 07:47:33;;;;;;;5.35;1.95;;;;;24.20;101003.00;;;;10259526;28;20753;-77
2023/08/15 07:52:35;;;;;;;5.53;2.08;;;;;25.20;101006.00;;;;10258731;28;20363;-77
2023/08/15 07:57:37;;;;;;;3.05;1.63;;;;;25.60;101005.00;;;;10245217;28;20812;-78
2023/08/15 08:02:44;;;;;;;2.78;1.45;;;;;26.20;101009.00;;;;10263599;28;20570;-76
2023/08/15 08:07:45;;;;;;;3.17;1.23;;;;;26.20;101009.00;;;;10234736;28;20243;-77
2023/08/15 08:12:46;;;;;;;4.40;1.35;;;;;27.10;101012.00;;;;10253382;28;20905;-76
2023/08/15 08:17:49;;;;;;;5.82;1.65;;;;;27.80;101015.00;;;;10262693;28;20687;-78
2023/08/15 08:22:51;;;;;;;3.58;1.60;;;;;28.00;101018.00;;;;10262163;28;20196;-76
2023/08/15 08:27:52;;;;;;;4.38;1.27;;;;;28.30;101003.00;;;;10238839;28;20207;-77
2023/08/15 08:32:54;;;;;;;4.05;1.70;;;;;28.80;101009.00;;;;10258057;28;20796;-76
2023/08/15 08:37:55;;;;;;;4.35;1.55;;;;;28.40;101019.00;;;;10264595;28;21670;-80
2023/08/15 08:42:58;;;;;;;2.75;1.67;;;;;28.90;101022.00;;;;10248829;28;20203;-80
2023/08/15 08:48:00;;;;;;;2.75;1.50;;;;;29.00;101025.00;;;;10264635;28;20211;-78
2023/08/15 08:53:01;;;;;;;4.82;1.52;;;;;29.80;101025.00;;;;10265762;28;20219;-79
2023/08/15 08:58:04;;;;;;;6.53;1.92;;;;;29.70;101030.00;;;;10264717;28;20317;-77
2023/08/15 09:03:06;;;;;;;3.90;1.52;;;;;29.30;101021.00;;;;10262055;28;20220;-78
2023/08/15 09:08:08;;;;;;;6.28;2.08;;;;;29.60;101032.00;;;;10268130;28;20285;-77
2023/08/15 09:13:10;;;;;;;2.60;1.38;;;;;29.80;101032.00;;;;10269488;28;20583;-77
2023/08/15 09:18:11;;;;;;;4.75;1.60;;;;;29.50;101031.00;;;;10247482;28;20355;-76
2023/08/15 09:23:13;;;;;;;7.10;2.05;;;;;29.50;101037.00;;;;10255266;28;20265;-79
2023/08/15 09:28:15;;;;;;;4.45;1.90;;;;;30.10;101044.00;;;;10266260;28;20753;-79
2023/08/15 09:33:16;;;;;;;4.40;2.10;;;;;30.80;101031.00;;;;10232037;28;20300;-78
2023/08/15 09:38:17;;;;;;;8.45;1.80;;;;;31.20;101041.00;;;;10247233;28;20227;-77
2023/08/15 09:43:19;;;;;;;8.75;2.17;;;;;31.10;101035.00;;;;10263179;28;20216;-78
2023/08/15 09:48:22;;;;;;;5.47;2.10;;;;;31.60;101038.00;;;;10247577;28;20524;-78
2023/08/15 09:53:24;;;;;;;7.63;2.38;;;;;32.50;101047.00;;;;10260003;28;20207;-79
2023/08/15 09:58:25;;;;;;;5.32;2.15;;;;;32.30;101049.00;;;;10260886;28;20223;-78
2023/08/15 10:03:35;;;;;;;7.05;2.08;;;;;30.40;101060.00;;;;10261458;28;20719;-76
2023/08/15 10:08:38;;;;;;;6.35;2.10;;;;;31.00;101046.00;;;;10243780;28;20218;-77
2023/08/15 10:13:39;;;;;;;5.63;2.28;;;;;31.90;101060.00;;;;10242257;28;20693;-78
2023/08/15 10:18:56;;;;;;;9.10;2.63;;;;;32.50;101059.00;;;;10247513;28;20231;-79
2023/08/15 10:24:03;;;;;;;5.13;2.15;;;;;31.50;101062.00;;;;10262834;28;20856;-79
2023/08/15 10:29:04;;;;;;;6.20;1.80;;;;;30.90;101056.00;;;;10261081;28;20199;-76
2023/08/15 10:34:10;;;;;;;5.47;1.80;;;;;31.40;101064.00;;;;10259361;28;20268;-78
2023/08/15 10:39:14;;;;;;;5.22;1.90;;;;;30.00;101082.00;;;;10260526;28;20531;-77
2023/08/15 10:44:16;;;;;;;4.00;1.60;;;;;30.60;101066.00;;;;10266856;28;21979;-77
2023/08/15 10:49:18;;;;;;;4.68;1.73;;;;;33.20;101071.00;;;;10270089;28;20202;-77
2023/08/15 10:54:19;;;;;;;6.72;2.13;;;;;33.60;101074.00;;;;10264301;28;20207;-77
2023/08/15 10:59:21;;;;;;;4.00;1.73;;;;;33.90;101092.00;;;;10264647;28;20313;-77
2023/08/15 11:04:24;;;;;;;8.75;1.95;;;;;32.30;101085.00;;;;10265466;28;21665;-77
2023/08/15 11:09:29;;;;;;;5.88;1.75;;;;;30.90;101087.00;;;;10260212;28;20729;-80
2023/08/15 11:14:32;;;;;;;8.02;2.17;;;;;31.00;101086.00;;;;10258902;28;20211;-78
2023/08/15 11:19:33;;;;;;;4.38;2.05;;;;;32.50;101090.00;;;;10261721;28;21500;-80
2023/08/15 11:24:35;;;;;;;4.15;1.98;;;;;32.90;101085.00;;;;10236953;28;21688;-78
2023/08/15 11:29:36;;;;;;;4.82;1.98;;;;;33.00;101099.00;;;;10257613;28;20207;-80
2023/08/15 11:34:38;;;;;;;4.38;1.70;;;;;32.80;101096.00;;;;10235408;28;20899;-78
2023/08/15 11:39:39;;;;;;;5.72;2.20;;;;;32.80;101086.00;;;;10253015;28;20309;-77
2023/08/15 11:44:40;;;;;;;3.47;1.63;;;;;33.70;101085.00;;;;10259328;28;21812;-77
2023/08/15 11:49:46;;;;;;;7.25;2.17;;;;;33.10;101100.00;;;;10257332;28;20601;-77
2023/08/15 11:54:47;;;;;;;6.13;2.15;;;;;33.90;101099.00;;;;10255261;28;20693;-80
2023/08/15 11:59:51;;;;;;;4.78;2.35;;;;;35.10;101095.00;;;;10257051;28;20227;-77
2023/08/15 12:04:52;;;;;;;3.50;1.75;;;;;34.50;101102.00;;;;10257502;28;20215;-78
2023/08/15 12:09:55;;;;;;;5.03;1.80;;;;;34.50;101088.00;;;;10238771;28;20273;-77
2023/08/15 12:14:56;;;;;;;3.20;1.95;;;;;34.10;101086.00;;;;10258040;28;20235;-78
2023/08/15 12:19:57;;;;;;;4.95;1.85;;;;;35.00;101080.00;;;;10261803;28;20370;-79
2023/08/15 12:24:59;;;;;;;7.15;1.92;;;;;35.10;101080.00;;;;10265483;28;20624;-78
2023/08/15 12:30:02;;;;;;;5.13;2.03;;;;;35.40;101073.00;;;;10248091;28;20238;-81
2023/08/15 12:35:15;;;;;;;3.42;1.65;;;;;35.30;101079.00;;;;10260545;28;20211;-78
2023/08/15 12:40:16;;;;;;;3.30;1.48;;;;;34.10;101077.00;;;;10261993;28;20341;-78
2023/08/15 12:45:32;;;;;;;2.58;1.52;;;;;33.60;101088.00;;;;10246852;28;21681;-78
2023/08/15 12:50:34;;;;;;;5.30;1.50;;;;;31.90;101071.00;;;;10253611;28;20222;-78
2023/08/15 12:55:35;;;;;;;5.85;1.80;;;;;31.50;101080.00;;;;10220826;28;22211;-78
2023/08/15 13:00:37;;;;;;;4.85;1.58;;;;;32.50;101066.00;;;;10264250;28;20607;-80
2023/08/15 13:05:38;;;;;;;4.63;1.52;;;;;33.40;101079.00;;;;10245857;28;20203;-78
2023/08/15 13:10:40;;;;;;;5.13;1.80;;;;;33.50;101083.00;;;;10244862;28;20212;-77
2023/08/15 13:15:44;;;;;;;4.20;1.63;;;;;33.60;101082.00;;;;10262222;28;20261;-78
2023/08/15 13:20:45;;;;;;;4.32;1.40;;;;;32.90;101095.00;;;;10251850;28;20226;-78
2023/08/15 13:25:47;;;;;;;3.60;1.90;;;;;32.10;101090.00;;;;10257036;28;20922;-78
2023/08/15 13:30:48;;;;;;;4.93;1.80;;;;;31.70;101084.00;;;;10237492;28;20325;-78
2023/08/15 13:35:49;;;;;;;3.72;1.65;;;;;30.90;101079.00;;;;10242671;28;20246;-79
2023/08/15 13:40:51;;;;;;;3.88;1.65;;;;;30.10;101086.00;;;;10264866;28;20227;-79
2023/08/15 13:45:52;;;;;;;6.82;1.88;;;;;30.70;101081.00;;;;10244037;28;20214;-78
2023/08/15 13:50:53;;;;;;;6.93;1.70;;;;;31.30;101090.00;;;;10259413;28;21008;-78
2023/08/15 13:55:55;;;;;;;4.95;1.80;;;;;30.30;101094.00;;;;10263172;28;20223;-77
2023/08/15 14:00:56;;;;;;;5.53;1.80;;;;;29.80;101101.00;;;;10258405;28;20223;-78
2023/08/15 14:05:59;;;;;;;5.75;2.08;;;;;29.50;101096.00;;;;10268868;28;20213;-78
2023/08/15 14:11:03;;;;;;;8.73;2.08;;;;;31.10;101108.00;;;;10261453;28;20242;-76
2023/08/15 14:16:04;;;;;;;5.95;1.67;;;;;30.50;101108.00;;;;10270615;28;20247;-77
2023/08/15 14:21:08;;;;;;;5.30;1.60;;;;;29.40;101115.00;;;;10271045;28;20227;-78
2023/08/15 14:26:10;;;;;;;4.60;1.45;;;;;29.10;101108.00;;;;10272589;28;20211;-77
2023/08/15 14:31:11;;;;;;;4.20;1.73;;;;;29.10;101112.00;;;;10264545;28;20721;-79
2023/08/15 14:36:13;;;;;;;3.40;1.75;;;;;29.10;101111.00;;;;10234994;28;20203;-78
2023/08/15 14:41:14;;;;;;;3.88;1.95;;;;;29.10;101119.00;;;;10229991;28;21609;-78
2023/08/15 14:46:16;;;;;;;4.03;1.90;;;;;30.10;101112.00;;;;10261297;28;20215;-77
2023/08/15 14:51:17;;;;;;;6.78;2.00;;;;;29.50;101116.00;;;;10256533;28;20413;-77
2023/08/15 14:56:18;;;;;;;4.38;1.80;;;;;29.10;101120.00;;;;10240214;28;20214;-76
2023/08/15 15:01:19;;;;;;;4.68;1.40;;;;;29.30;101107.00;;;;10258243;28;20309;-78
2023/08/15 15:06:21;;;;;;;2.58;1.50;;;;;29.60;101120.00;;;;10256125;28;20210;-78
2023/08/15 15:11:22;;;;;;;3.10;1.85;;;;;27.80;101117.00;;;;10257380;28;20708;-77
2023/08/15 15:16:24;;;;;;;3.40;1.45;;;;;27.40;101122.00;;;;10256673;28;20324;-78
2023/08/15 15:21:25;;;;;;;5.22;1.92;;;;;28.00;101116.00;;;;10256622;28;20251;-78
2023/08/15 15:26:26;;;;;;;3.40;2.00;;;;;27.50;101130.00;;;;10257816;28;20215;-78
2023/08/15 15:31:28;;;;;;;2.10;1.50;;;;;26.90;101128.00;;;;10240556;28;20277;-77
2023/08/15 15:36:29;;;;;;;3.40;1.75;;;;;26.80;101133.00;;;;10267028;28;20215;-77
2023/08/15 15:41:30;;;;;;;4.07;1.65;;;;;27.30;101134.00;;;;10260485;28;20813;-76
2023/08/15 15:46:32;;;;;;;5.72;1.90;;;;;27.70;101129.00;;;;10268173;28;20199;-79
2023/08/15 15:51:45;;;;;;;4.30;1.90;;;;;27.50;101131.00;;;;10246011;28;20318;-79
2023/08/15 15:56:47;;;;;;;4.75;1.88;;;;;26.90;101144.00;;;;10268185;28;20214;-79
2023/08/15 16:01:48;;;;;;;3.28;1.48;;;;;26.80;101151.00;;;;10249094;28;20226;-77
2023/08/15 16:06:49;;;;;;;5.20;1.63;;;;;26.30;101145.00;;;;10274488;28;20592;-77
2023/08/15 16:11:51;;;;;;;3.13;1.48;;;;;26.10;101152.00;;;;10255528;28;20211;-79
2023/08/15 16:16:53;;;;;;;2.10;1.60;;;;;26.20;101157.00;;;;10255914;28;20203;-78
2023/08/15 16:21:54;;;;;;;4.22;1.63;;;;;26.30;101157.00;;;;10271927;28;20858;-79
2023/08/15 16:26:56;;;;;;;2.75;1.33;;;;;26.30;101162.00;;;;10262922;28;20215;-78
2023/08/15 16:31:58;;;;;;;3.10;1.40;;;;;26.70;101156.00;;;;10264841;28;21218;-78
2023/08/15 16:36:59;;;;;;;3.90;1.60;;;;;26.70;101152.00;;;;10243939;28;20346;-79
2023/08/15 16:42:00;;;;;;;3.92;1.40;;;;;26.60;101160.00;;;;10258355;28;21507;-77
2023/08/15 16:47:01;;;;;;;3.80;1.50;;;;;26.30;101158.00;;;;10230928;28;20265;-77
2023/08/15 16:52:03;;;;;;;3.53;1.67;;;;;26.10;101154.00;;;;10256681;28;20207;-78
2023/08/15 16:57:05;;;;;;;1.88;1.42;;;;;25.60;101164.00;;;;10240093;28;20215;-76
2023/08/15 17:02:06;;;;;;;1.60;1.00;;;;;25.40;101169.00;;;;10274606;28;20689;-77
2023/08/15 17:07:07;;;;;;;1.10;1.00;;;;;25.60;101173.00;;;;10256618;28;20580;-77
2023/08/15 17:12:08;;;;;;;1.42;1.20;;;;;25.50;101173.00;;;;10269256;28;20246;-77
2023/08/15 17:17:10;;;;;;;1.80;1.40;;;;;25.60;101171.00;;;;10270959;28;20637;-77
2023/08/15 17:22:11;;;;;;;2.72;1.20;;;;;25.80;101178.00;;;;10257584;28;20238;-78
2023/08/15 17:27:13;;;;;;;1.50;1.40;;;;;25.70;101181.00;;;;10255100;28;20215;-78
2023/08/15 17:32:14;;;;;;;2.47;1.50;;;;;25.60;101187.00;;;;10258066;28;21379;-79
2023/08/15 17:37:15;;;;;;;2.97;1.60;;;;;25.20;101188.00;;;;10246393;28;20199;-80
2023/08/15 17:42:17;;;;;;;4.72;1.58;;;;;24.90;101182.00;;;;10262917;28;20208;-77
2023/08/15 17:47:18;;;;;;;2.97;1.88;;;;;24.50;101187.00;;;;10251490;28;20210;-78
2023/08/15 17:52:19;;;;;;;2.33;1.65;;;;;24.30;101195.00;;;;10258875;28;20590;-77
2023/08/15 17:57:22;;;;;;;18.23;3.00;;;;;24.30;101191.00;;;;10261443;28;20968;-78
2023/08/15 18:02:23;;;;;;;9.27;2.72;;;;;24.30;101196.00;;;;10267975;28;20251;-78
2023/08/15 18:07:26;;;;;;;20.10;3.00;;;;;24.40;101197.00;;;;10268502;28;20707;-78
2023/08/15 18:12:29;;;;;;;7.97;3.03;;;;;24.10;101195.00;;;;10237699;28;20760;-79
2023/08/15 18:17:30;;;;;;;5.00;3.33;;;;;23.80;101206.00;;;;10262370;28;20218;-77
2023/08/15 18:22:32;;;;;;;5.35;3.45;;;;;23.70;101216.00;;;;10245173;28;20235;-78
2023/08/15 18:27:33;;;;;;;5.45;4.03;;;;;23.60;101217.00;;;;10259117;28;20525;-78
2023/08/15 18:32:34;;;;;;;5.55;3.38;;;;;23.60;101231.00;;;;10240730;28;20493;-78
2023/08/15 18:37:36;;;;;;;10.15;3.92;;;;;23.30;101237.00;;;;10266778;28;20215;-78
2023/08/15 18:42:37;;;;;;;5.32;3.70;;;;;23.00;101244.00;;;;10245948;28;20325;-77
2023/08/15 18:47:38;;;;;;;8.00;3.50;;;;;22.70;101249.00;;;;10260820;28;20342;-77
2023/08/15 18:52:39;;;;;;;13.65;3.83;;;;;22.30;101253.00;;;;10248893;28;20291;-76
2023/08/15 18:57:41;;;;;;;10.40;3.28;;;;;21.90;101262.00;;;;10243828;28;20284;-77
2023/08/15 19:02:42;;;;;;;9.63;3.35;;;;;21.60;101279.00;;;;10263662;28;21176;-75
2023/08/15 19:07:43;;;;;;;7.28;3.00;;;;;21.40;101285.00;;;;10260489;28;20576;-78
2023/08/15 19:12:45;;;;;;;13.98;3.47;;;;;21.30;101284.00;;;;10260658;28;20768;-78
2023/08/15 19:17:50;;;;;;;6.70;2.83;;;;;21.20;101287.00;;;;10263701;28;20214;-76
2023/08/15 19:22:52;;;;;;;15.90;3.50;;;;;21.10;101302.00;;;;10241241;28;20223;-78
2023/08/15 19:27:53;;;;;;;14.57;3.22;;;;;21.00;101307.00;;;;10262136;28;20199;-77
2023/08/15 19:32:55;;;;;;;8.23;3.35;;;;;20.90;101323.00;;;;10242693;28;20261;-76
2023/08/15 19:37:56;;;;;;;4.43;2.75;;;;;20.80;101322.00;;;;10260224;28;20677;-78
2023/08/15 19:42:58;;;;;;;8.25;3.47;;;;;20.80;101331.00;;;;10264656;28;20845;-78
2023/08/15 19:47:59;;;;;;;6.15;2.22;;;;;20.70;101338.00;;;;10261131;28;20819;-78
2023/08/15 19:53:00;;;;;;;4.00;2.35;;;;;20.60;101350.00;;;;10255343;28;20203;-76
2023/08/15 19:58:01;;;;;;;10.43;3.00;;;;;20.50;101365.00;;;;10241778;28;21610;-78
2023/08/15 20:03:03;;;;;;;8.55;3.28;;;;;20.50;101369.00;;;;10259860;28;20207;-76
2023/08/15 20:08:05;;;;;;;8.10;3.13;;;;;20.40;101368.00;;;;10247102;28;20211;-77
2023/08/15 20:13:06;;;;;;;6.95;2.90;;;;;20.40;101378.00;;;;10259169;28;21542;-76
2023/08/15 20:18:07;;;;;;;6.45;2.85;;;;;20.40;101382.00;;;;10259691;28;20221;-77
2023/08/15 20:23:08;;;;;;;8.63;2.67;;;;;20.40;101386.00;;;;10255992;28;20224;-76
2023/08/15 20:28:12;;;;;;;6.65;2.60;;;;;20.40;101383.00;;;;10238508;28;20369;-76
2023/08/15 20:33:13;;;;;;;6.45;2.75;;;;;20.40;101397.00;;;;10240228;28;20207;-76
2023/08/15 20:38:15;;;;;;;6.57;1.92;;;;;20.40;101394.00;;;;10268139;28;20204;-77
2023/08/15 20:43:16;;;;;;;5.90;2.53;;;;;20.40;101394.00;;;;10270989;28;20227;-77
2023/08/15 20:48:18;;;;;;;7.85;2.40;;;;;20.40;101398.00;;;;10267090;28;20712;-77
2023/08/15 20:53:19;;;;;;;11.55;2.72;;;;;20.40;101399.00;;;;10263091;28;20226;-76
2023/08/15 20:58:20;;;;;;;7.53;1.88;;;;;20.40;101406.00;;;;10262292;28;20632;-77
2023/08/15 21:03:22;;;;;;;8.60;2.17;;;;;20.30;101407.00;;;;10243472;28;20346;-78
2023/08/15 21:08:23;;;;;;;4.82;2.15;;;;;20.30;101404.00;;;;10243869;28;20878;-78
2023/08/15 21:13:25;;;;;;;3.55;1.67;;;;;20.30;101411.00;;;;10261468;28;20338;-76
2023/08/15 21:18:26;;;;;;;3.90;1.80;;;;;20.20;101414.00;;;;10246940;28;20747;-77
2023/08/15 21:23:27;;;;;;;4.28;1.70;;;;;20.20;101422.00;;;;10245532;28;21009;-77
2023/08/15 21:28:29;;;;;;;3.25;1.50;;;;;20.10;101423.00;;;;10259977;28;21499;-77
2023/08/15 21:33:30;;;;;;;3.45;1.40;;;;;20.10;101426.00;;;;10243204;28;20211;-76
2023/08/15 21:38:31;;;;;;;4.45;1.98;;;;;20.10;101419.00;;;;10260504;28;20216;-77
2023/08/15 21:43:33;;;;;;;7.80;2.45;;;;;20.10;101417.00;;;;10221728;28;21317;-76
2023/08/15 21:48:34;;;;;;;4.28;1.90;;;;;20.00;101417.00;;;;10262141;28;21283;-76
2023/08/15 21:53:35;;;;;;;3.97;1.80;;;;;19.90;101422.00;;;;10243392;28;20207;-77
2023/08/15 21:58:37;;;;;;;3.90;1.63;;;;;19.80;101421.00;;;;10262601;28;20749;-77
2023/08/15 22:03:38;;;;;;;6.68;1.90;;;;;19.80;101423.00;;;;10247549;28;20207;-77
2023/08/15 22:08:40;;;;;;;4.22;2.03;;;;;19.80;101427.00;;;;10260526;28;20216;-77
2023/08/15 22:13:42;;;;;;;3.67;2.00;;;;;19.80;101428.00;;;;10241664;28;20247;-77
2023/08/15 22:18:43;;;;;;;5.32;2.60;;;;;19.80;101441.00;;;;10261631;28;20744;-77
2023/08/15 22:23:45;;;;;;;4.30;2.00;;;;;19.80;101427.00;;;;10263384;28;20211;-77
2023/08/15 22:28:46;;;;;;;5.25;2.40;;;;;19.80;101430.00;;;;10246643;28;20211;-77
2023/08/15 22:33:47;;;;;;;5.60;1.95;;;;;19.80;101430.00;;;;10264849;28;20290;-77
2023/08/15 22:38:49;;;;;;;5.57;1.95;;;;;19.70;101426.00;;;;10267798;28;20211;-77
2023/08/15 22:43:50;;;;;;;4.32;2.03;;;;;19.70;101416.00;;;;10266271;28;20211;-76
2023/08/15 22:48:52;;;;;;;5.28;2.30;;;;;19.60;101410.00;;;;10263932;28;21139;-77
2023/08/15 22:53:53;;;;;;;3.42;2.00;;;;;19.50;101415.00;;;;10240929;28;21893;-76
2023/08/15 22:58:55;;;;;;;3.35;2.42;;;;;19.50;101424.00;;;;10262189;28;20302;-77
2023/08/15 23:03:56;;;;;;;8.50;1.90;;;;;19.40;101416.00;;;;10264798;28;21610;-77
2023/08/15 23:08:57;;;;;;;7.22;2.58;;;;;19.40;101410.00;;;;10260094;28;20673;-78
2023/08/15 23:13:59;;;;;;;6.78;2.70;;;;;19.50;101413.00;;;;10241579;28;20300;-77
2023/08/15 23:19:00;;;;;;;8.75;2.40;;;;;19.50;101412.00;;;;10259612;28;20709;-78
2023/08/15 23:24:01;;;;;;;4.22;2.55;;;;;19.50;101396.00;;;;10258020;28;20290;-77
2023/08/15 23:29:04;;;;;;;4.93;2.75;;;;;19.50;101404.00;;;;10261299;28;21486;-75
2023/08/15 23:34:06;;;;;;;4.03;2.30;;;;;19.40;101409.00;;;;10263172;28;21699;-78
2023/08/15 23:39:07;;;;;;;5.63;2.47;;;;;19.40;101403.00;;;;10248782;28;21493;-76
2023/08/15 23:44:09;;;;;;;3.80;2.53;;;;;19.40;101408.00;;;;10213522;28;20243;-77
2023/08/15 23:49:10;;;;;;;5.13;2.50;;;;;19.40;101411.00;;;;10244549;28;20301;-77
2023/08/15 23:54:11;;;;;;;4.55;2.30;;;;;19.30;101415.00;;;;10242950;28;21741;-76
2023/08/15 23:59:13;;;;;;;5.53;2.88;;;;;19.30;101405.00;;;;10242836;28;20554;-77
